createdAt,value
2023-04-02T00:01:51.651Z,15.24
2023-04-02T00:07:34.704Z,15.29
2023-04-02T00:12:40.862Z,15.29
2023-04-02T00:17:45.996Z,15.36
2023-04-02T00:22:51.847Z,15.44
2023-04-02T00:27:58.187Z,15.56
2023-04-02T00:33:03.307Z,15.68
2023-04-02T00:38:15.087Z,15.82
2023-04-02T00:43:22.207Z,15.92
2023-04-02T00:48:46.080Z,15.93
2023-04-02T00:53:54.483Z,15.95
2023-04-02T00:59:00.356Z,15.98
2023-04-02T01:04:06.825Z,16.01
2023-04-02T01:09:35.451Z,16.05
2023-04-02T01:15:19.181Z,16.07
2023-04-02T01:21:04.636Z,16.10
2023-04-02T01:26:25.834Z,16.11
2023-04-02T01:31:34.462Z,16.14
2023-04-02T01:37:08.163Z,16.26
2023-04-02T01:42:20.565Z,16.33
2023-04-02T01:47:28.575Z,16.29
2023-04-02T01:52:44.585Z,16.36
2023-04-02T01:57:54.562Z,16.37
2023-04-02T02:03:01.626Z,16.41
2023-04-02T02:54:05.993Z,16.36
2023-04-02T03:30:47.525Z,17.98
2023-04-02T03:36:23.672Z,18.19
2023-04-02T03:42:07.614Z,18.25
2023-04-02T03:47:44.243Z,18.23
2023-04-02T03:52:50.033Z,18.20
2023-04-02T03:58:17.285Z,18.24
2023-04-02T04:03:46.299Z,18.23
2023-04-02T04:09:03.729Z,18.14
2023-04-02T04:14:35.131Z,18.02
2023-04-02T04:20:12.481Z,17.94
2023-04-02T04:25:34.938Z,17.92
2023-04-02T04:30:54.630Z,17.88
2023-04-02T04:36:01.872Z,17.86
2023-04-02T04:41:18.322Z,17.83
2023-04-02T04:46:42.907Z,17.83
2023-04-02T04:51:55.514Z,17.74
2023-04-02T04:57:05.968Z,17.68
2023-04-02T05:02:30.041Z,17.66
2023-04-02T05:07:46.749Z,17.65
2023-04-02T05:12:56.329Z,17.60
2023-04-02T05:18:25.467Z,17.57
2023-04-02T05:23:44.450Z,17.55
2023-04-02T05:29:08.323Z,17.52
2023-04-02T05:34:14.917Z,17.54
2023-04-02T05:39:25.482Z,17.57
2023-04-02T05:44:39.230Z,17.60
2023-04-02T05:50:08.761Z,17.59
2023-04-02T05:55:39.406Z,17.57
2023-04-02T06:01:32.237Z,17.58
2023-04-02T06:06:43.775Z,17.60
2023-04-02T06:11:58.479Z,17.65
2023-04-02T06:17:03.571Z,17.82
2023-04-02T06:22:39.564Z,18.07
2023-04-02T06:27:49.921Z,18.27
2023-04-02T06:32:58.011Z,18.33
2023-04-02T06:38:07.430Z,18.32
2023-04-02T06:43:35.191Z,18.29
2023-04-02T06:49:01.072Z,18.28
2023-04-02T06:54:08.047Z,18.29
2023-04-02T06:59:14.992Z,18.29
2023-04-02T07:04:22.777Z,18.26
2023-04-02T07:09:30.527Z,18.20
2023-04-02T07:14:37.469Z,18.24
2023-04-02T07:19:43.260Z,18.28
2023-04-02T07:24:49.254Z,18.27
2023-04-02T07:29:54.452Z,18.22
2023-04-02T07:35:01.014Z,18.25
2023-04-02T07:40:10.328Z,18.28
2023-04-02T07:45:16.207Z,18.28
2023-04-02T07:50:21.987Z,18.21
2023-04-02T07:55:27.779Z,18.17
2023-04-02T08:00:33.523Z,18.11
2023-04-02T08:05:39.818Z,18.14
2023-04-02T08:10:44.976Z,18.19
2023-04-02T08:15:50.153Z,18.13
2023-04-02T08:20:56.316Z,18.10
2023-04-02T08:26:01.626Z,18.13
2023-04-02T08:31:08.331Z,18.07
2023-04-02T08:36:19.642Z,17.97
2023-04-02T08:41:32.389Z,17.87
2023-04-02T08:46:49.848Z,17.76
2023-04-02T08:51:55.107Z,17.71
2023-04-02T08:57:17.838Z,17.72
2023-04-02T09:02:40.990Z,17.75
2023-04-02T09:07:49.263Z,17.80
2023-04-02T09:12:55.098Z,17.82
2023-04-02T09:18:20.632Z,17.83
2023-04-02T09:23:29.433Z,17.79
2023-04-02T09:28:34.989Z,17.72
2023-04-02T09:33:48.747Z,17.67
2023-04-02T09:39:08.385Z,17.53
2023-04-02T09:44:33.909Z,17.48
2023-04-02T09:49:41.358Z,17.38
2023-04-02T09:54:47.505Z,17.35
2023-04-02T10:00:32.182Z,17.32
2023-04-02T10:05:40.943Z,17.36
2023-04-02T10:10:55.003Z,17.38
2023-04-02T10:16:25.643Z,17.37
2023-04-02T10:21:38.776Z,17.35
2023-04-02T10:26:55.945Z,17.34
2023-04-02T10:32:20.839Z,17.30
2023-04-02T10:37:48.269Z,17.25
2023-04-02T10:43:14.353Z,17.18
2023-04-02T10:48:41.160Z,17.14
2023-04-02T10:54:12.995Z,17.09
2023-04-02T10:59:30.554Z,17.06
2023-04-02T11:04:45.813Z,17.02
2023-04-02T11:09:55.554Z,16.98
2023-04-02T11:15:02.884Z,16.93
2023-04-02T11:20:45.819Z,16.89
2023-04-02T11:25:51.250Z,16.85
2023-04-02T11:30:57.505Z,16.81
2023-04-02T11:36:03.702Z,16.76
2023-04-02T11:41:08.848Z,16.73
2023-04-02T11:46:32.385Z,16.70
2023-04-02T11:51:59.154Z,16.64
2023-04-02T11:57:32.133Z,16.59
2023-04-02T12:03:06.054Z,16.54
2023-04-02T12:08:28.866Z,16.49
2023-04-02T12:13:45.103Z,16.41
2023-04-02T12:18:56.712Z,16.31
2023-04-02T12:24:03.420Z,16.28
2023-04-02T12:29:29.731Z,16.25
2023-04-02T12:34:36.006Z,16.22
2023-04-02T12:39:41.645Z,16.22
2023-04-02T12:44:51.830Z,16.21
2023-04-02T12:50:01.304Z,16.19
2023-04-02T12:55:08.115Z,16.15
2023-04-02T13:00:23.283Z,16.13
2023-04-02T13:05:44.626Z,16.11
2023-04-02T13:10:56.378Z,16.12
2023-04-02T13:16:26.682Z,16.15
2023-04-02T13:21:33.823Z,16.14
2023-04-02T13:26:39.643Z,16.18
2023-04-02T13:31:48.568Z,16.19
2023-04-02T13:36:55.761Z,16.21
2023-04-02T13:42:06.119Z,16.22
2023-04-02T13:47:17.225Z,16.23
2023-04-02T13:52:23.305Z,16.24
2023-04-02T13:57:29.572Z,16.20
2023-04-02T14:02:36.382Z,16.20
2023-04-02T14:07:49.180Z,16.19
2023-04-02T14:13:24.617Z,16.18
2023-04-02T14:19:08.303Z,16.16
2023-04-02T14:24:21.589Z,16.15
2023-04-02T14:30:04.029Z,16.14
2023-04-02T14:35:27.176Z,16.12
2023-04-02T14:40:41.211Z,16.08
2023-04-02T14:45:53.589Z,16.03
2023-04-02T14:51:14.622Z,15.99
2023-04-02T14:56:23.474Z,15.96
2023-04-02T15:01:38.886Z,15.90
2023-04-02T15:06:57.105Z,15.84
2023-04-02T15:12:34.018Z,15.83
2023-04-02T15:17:39.521Z,15.79
2023-04-02T15:23:13.277Z,15.82
2023-04-02T15:28:38.370Z,15.77
2023-04-02T15:33:46.417Z,15.76
2023-04-02T15:39:21.969Z,15.72
2023-04-02T15:44:27.708Z,15.69
2023-04-02T15:49:44.922Z,15.65
2023-04-02T15:55:25.999Z,15.63
2023-04-02T16:00:32.761Z,15.64
2023-04-02T16:06:07.274Z,15.64
2023-04-02T16:11:14.924Z,15.63
2023-04-02T16:16:30.584Z,15.60
2023-04-02T16:21:43.417Z,15.55
2023-04-02T16:27:24.669Z,15.53
2023-04-02T16:33:17.067Z,15.51
2023-04-02T16:38:46.753Z,15.49
2023-04-02T16:44:26.008Z,15.45
2023-04-02T16:49:40.826Z,15.43
2023-04-02T16:54:51.948Z,15.41
2023-04-02T17:00:08.846Z,15.39
2023-04-02T17:05:16.199Z,15.36
2023-04-02T17:10:24.615Z,15.34
2023-04-02T17:15:53.934Z,15.31
2023-04-02T17:21:05.597Z,15.30
2023-04-02T17:26:13.293Z,15.24
2023-04-02T17:31:26.342Z,15.24
2023-04-02T17:36:53.458Z,15.19
2023-04-02T17:42:08.719Z,15.10
2023-04-02T17:47:46.467Z,15.07
2023-04-02T17:53:03.720Z,15.00
2023-04-02T17:58:18.586Z,14.98
2023-04-02T18:03:55.848Z,14.94
2023-04-02T18:09:12.735Z,14.91
2023-04-02T18:14:36.618Z,14.84
2023-04-02T18:20:05.316Z,14.78
2023-04-02T18:25:46.596Z,14.71
2023-04-02T18:31:07.155Z,14.65
2023-04-02T18:36:31.187Z,14.58
2023-04-02T18:41:48.452Z,14.53
2023-04-02T18:47:05.364Z,14.49
2023-04-02T18:52:19.264Z,14.43
2023-04-02T18:57:43.609Z,14.41
2023-04-02T19:02:57.916Z,14.39
2023-04-02T19:08:13.872Z,14.34
2023-04-02T19:13:23.189Z,14.28
2023-04-02T19:18:41.162Z,14.17
2023-04-02T19:23:54.132Z,14.10
2023-04-02T19:29:07.384Z,14.05
2023-04-02T19:34:18.265Z,14.00
2023-04-02T19:39:55.282Z,13.95
2023-04-02T19:45:00.476Z,13.88
2023-04-02T19:50:06.308Z,13.82
2023-04-02T19:55:11.510Z,13.78
2023-04-02T20:00:17.534Z,13.74
2023-04-02T20:05:22.694Z,13.68
2023-04-02T20:10:27.612Z,13.58
2023-04-02T20:15:32.727Z,13.48
2023-04-02T20:20:38.015Z,13.37
2023-04-02T20:25:54.385Z,13.26
2023-04-02T20:31:16.337Z,13.22
2023-04-02T20:36:21.380Z,13.19
2023-04-02T20:41:26.077Z,13.17
2023-04-02T20:46:30.778Z,13.16
2023-04-02T20:51:35.926Z,13.13
2023-04-02T20:56:40.958Z,13.20
2023-04-02T21:01:46.109Z,13.23
2023-04-02T21:06:51.027Z,13.17
2023-04-02T21:11:55.818Z,13.14
2023-04-02T21:17:00.562Z,13.16
2023-04-02T21:22:05.452Z,13.12
2023-04-02T21:27:10.091Z,13.08
2023-04-02T21:32:21.282Z,13.06
2023-04-02T21:37:26.965Z,13.04
2023-04-02T21:42:31.728Z,13.05
2023-04-02T21:47:35.790Z,13.03
2023-04-02T21:52:40.356Z,13.06
2023-04-02T21:57:44.448Z,13.08
2023-04-02T22:02:49.100Z,13.10
2023-04-02T22:07:53.703Z,13.06
2023-04-02T22:12:58.298Z,13.03
2023-04-02T22:18:02.990Z,13.03
2023-04-02T22:23:07.716Z,13.02
2023-04-02T22:28:12.448Z,12.99
2023-04-02T22:33:18.377Z,13.01
2023-04-02T22:38:22.965Z,13.01
2023-04-02T22:43:27.628Z,13.06
2023-04-02T22:48:32.312Z,13.10
2023-04-02T22:53:37.955Z,13.15
2023-04-02T22:58:43.365Z,13.18
2023-04-02T23:03:48.064Z,13.20
2023-04-02T23:08:53.504Z,13.29
2023-04-02T23:13:59.649Z,13.36
2023-04-02T23:19:05.178Z,13.38
2023-04-02T23:24:12.606Z,13.41
2023-04-02T23:29:17.611Z,13.43
2023-04-02T23:34:23.876Z,13.48
2023-04-02T23:39:29.170Z,13.52
2023-04-02T23:44:34.566Z,13.56
2023-04-02T23:49:39.764Z,13.60
2023-04-02T23:54:44.985Z,13.65
2023-04-02T23:59:49.561Z,13.70
